Time;durP1;ratioP1;P1;durP2;ratioP2;P2;SDS_P1;SDS_P2;PMS_P1;PMS_P2;Temp;Humidity;BMP_temperature;BMP_pressure;BME280_temperature;BME280_humidity;BME280_pressure;Samples;Min_cycle;Max_cycle;Signal;HPM_P1;HPM_P2
2023/09/25 00:00:56;;;;;;;2.33;1.45;;;18.00;99.90;;;;;;10093140;28;20174;-72
2023/09/25 00:05:48;;;;;;;3.22;1.70;;;18.00;99.90;;;;;;10092365;28;20057;-71
2023/09/25 00:10:41;;;;;;;1.50;1.10;;;17.80;99.90;;;;;;10092627;28;20021;-72
2023/09/25 00:15:32;;;;;;;4.00;1.35;;;17.80;99.90;;;;;;10085224;28;20136;-72
2023/09/25 00:20:24;;;;;;;2.72;1.40;;;17.80;99.90;;;;;;10091693;28;20579;-71
2023/09/25 00:25:14;;;;;;;3.33;1.48;;;17.80;99.90;;;;;;10080462;28;20114;-72
2023/09/25 00:30:08;;;;;;;3.88;1.40;;;17.70;99.90;;;;;;10089241;28;20583;-72
2023/09/25 00:34:59;;;;;;;3.30;1.67;;;17.60;99.90;;;;;;10082600;28;20120;-72
2023/09/25 00:39:49;;;;;;;4.55;1.70;;;17.60;99.90;;;;;;10096660;28;20187;-72
2023/09/25 00:44:40;;;;;;;2.05;1.58;;;17.50;99.90;;;;;;10094862;28;20025;-72
2023/09/25 00:49:32;;;;;;;1.83;1.33;;;17.40;99.90;;;;;;10101314;28;20037;-74
2023/09/25 00:54:23;;;;;;;2.88;1.60;;;17.40;99.90;;;;;;10087590;28;20495;-73
2023/09/25 00:59:14;;;;;;;2.38;1.65;;;17.40;99.90;;;;;;10087183;28;20162;-72
2023/09/25 01:04:05;;;;;;;3.47;1.83;;;17.40;99.90;;;;;;10098540;28;20216;-72
2023/09/25 01:08:55;;;;;;;6.03;1.98;;;17.20;99.90;;;;;;10089095;28;20096;-73
2023/09/25 01:13:46;;;;;;;2.17;1.48;;;17.10;99.90;;;;;;10090562;28;20152;-72
2023/09/25 01:18:37;;;;;;;1.90;1.40;;;17.20;99.90;;;;;;10098008;28;20020;-72
2023/09/25 01:23:27;;;;;;;3.28;1.63;;;17.00;99.90;;;;;;10093661;28;20028;-72
2023/09/25 01:28:18;;;;;;;1.95;1.33;;;16.90;99.90;;;;;;10083750;28;20464;-72
2023/09/25 01:33:09;;;;;;;2.67;1.63;;;17.00;99.90;;;;;;10084330;28;20491;-72
2023/09/25 01:38:00;;;;;;;2.10;1.40;;;16.90;99.90;;;;;;10098686;28;20290;-72
2023/09/25 01:42:51;;;;;;;4.38;1.23;;;16.90;99.90;;;;;;10094038;28;20537;-71
2023/09/25 01:47:42;;;;;;;1.65;1.10;;;16.70;99.90;;;;;;10094548;28;20021;-73
2023/09/25 01:52:33;;;;;;;2.78;2.17;;;16.60;99.90;;;;;;10088825;28;20271;-72
2023/09/25 01:57:24;;;;;;;1.80;1.38;;;16.40;99.90;;;;;;10087698;28;20509;-72
2023/09/25 02:02:15;;;;;;;2.78;1.90;;;16.50;99.90;;;;;;10086053;28;20017;-72
2023/09/25 02:07:06;;;;;;;3.13;1.58;;;16.40;99.90;;;;;;10097955;28;20451;-72
2023/09/25 02:11:56;;;;;;;2.55;1.77;;;16.50;99.90;;;;;;10092300;28;20030;-72
2023/09/25 02:16:47;;;;;;;2.22;1.50;;;16.60;99.90;;;;;;10089913;28;20045;-73
2023/09/25 02:21:38;;;;;;;4.38;1.65;;;16.70;99.90;;;;;;10097176;28;20037;-72
2023/09/25 02:26:28;;;;;;;2.15;1.40;;;16.70;99.90;;;;;;10084924;28;20017;-72
2023/09/25 02:31:19;;;;;;;2.95;1.45;;;16.60;99.90;;;;;;10088782;28;20021;-72
2023/09/25 02:36:10;;;;;;;2.45;1.65;;;16.40;99.90;;;;;;10077476;28;20123;-72
2023/09/25 02:41:01;;;;;;;2.30;1.60;;;16.20;99.90;;;;;;10095248;28;20498;-72
2023/09/25 02:45:52;;;;;;;3.47;1.73;;;16.00;99.90;;;;;;10091444;28;20079;-72
2023/09/25 02:50:43;;;;;;;1.48;1.17;;;16.00;99.90;;;;;;10093158;28;20021;-72
2023/09/25 02:55:34;;;;;;;2.28;1.85;;;16.00;99.90;;;;;;10088237;28;20060;-72
2023/09/25 03:00:24;;;;;;;2.28;1.70;;;16.00;99.90;;;;;;10080943;28;20496;-73
2023/09/25 03:05:15;;;;;;;1.83;1.35;;;15.90;99.90;;;;;;10094714;28;20037;-72
2023/09/25 03:10:06;;;;;;;2.55;1.65;;;15.80;99.90;;;;;;10093977;28;20028;-73
2023/09/25 03:14:57;;;;;;;3.53;1.42;;;15.80;99.90;;;;;;10091469;28;20037;-73
2023/09/25 03:19:50;;;;;;;2.50;1.20;;;15.70;99.90;;;;;;10085799;28;20021;-73
2023/09/25 03:24:41;;;;;;;3.25;1.33;;;15.70;99.90;;;;;;10084250;28;20052;-73
2023/09/25 03:29:32;;;;;;;2.53;1.30;;;15.60;99.90;;;;;;10086314;28;20479;-73
2023/09/25 03:34:22;;;;;;;2.38;1.70;;;15.50;99.90;;;;;;10084007;28;20036;-72
2023/09/25 03:39:13;;;;;;;2.40;1.20;;;15.50;99.90;;;;;;10095378;28;20430;-73
2023/09/25 03:44:04;;;;;;;2.47;1.48;;;15.50;99.90;;;;;;10090794;28;20032;-72
2023/09/25 03:48:54;;;;;;;2.60;1.58;;;15.30;99.90;;;;;;10088995;28;20047;-72
2023/09/25 03:53:45;;;;;;;2.92;1.60;;;15.40;99.90;;;;;;10084520;28;20055;-72
2023/09/25 03:58:36;;;;;;;2.05;1.38;;;15.50;99.90;;;;;;10093709;28;20529;-71
2023/09/25 04:03:26;;;;;;;3.00;1.77;;;15.50;99.90;;;;;;10095121;28;20083;-72
2023/09/25 04:08:17;;;;;;;3.05;1.50;;;15.40;99.90;;;;;;10089468;28;20037;-72
2023/09/25 04:13:08;;;;;;;1.20;0.98;;;15.40;99.90;;;;;;10096402;28;20029;-71
2023/09/25 04:17:58;;;;;;;4.80;1.60;;;15.30;99.90;;;;;;10090529;28;20033;-72
2023/09/25 04:22:50;;;;;;;2.63;1.50;;;15.30;99.90;;;;;;10074205;28;20021;-72
2023/09/25 04:27:40;;;;;;;2.70;1.33;;;15.10;99.90;;;;;;10084452;28;20032;-72
2023/09/25 04:32:32;;;;;;;3.08;1.23;;;15.00;99.90;;;;;;10074105;28;20499;-72
2023/09/25 04:37:23;;;;;;;2.65;1.48;;;15.10;99.90;;;;;;10089910;28;20037;-73
2023/09/25 04:42:14;;;;;;;4.55;1.65;;;15.10;99.90;;;;;;10091932;28;20028;-72
2023/09/25 04:47:04;;;;;;;2.67;1.45;;;15.00;99.90;;;;;;10089462;28;20025;-71
2023/09/25 04:51:55;;;;;;;2.20;1.30;;;15.00;99.90;;;;;;10091597;28;20052;-72
2023/09/25 04:56:47;;;;;;;2.47;1.40;;;15.00;99.90;;;;;;10076503;28;20069;-71
2023/09/25 05:01:37;;;;;;;1.52;1.10;;;14.90;99.90;;;;;;10080947;28;20112;-72
2023/09/25 05:06:28;;;;;;;4.65;2.78;;;14.90;99.90;;;;;;10092564;28;20115;-73
2023/09/25 05:11:18;;;;;;;5.88;2.25;;;14.90;99.90;;;;;;10090959;28;20025;-71
2023/09/25 05:16:09;;;;;;;2.40;1.58;;;14.80;99.90;;;;;;10093108;28;20086;-72
2023/09/25 05:21:00;;;;;;;2.55;1.60;;;14.80;99.90;;;;;;10087803;28;20017;-72
2023/09/25 05:25:52;;;;;;;2.35;1.50;;;14.70;99.90;;;;;;10083669;28;20029;-72
2023/09/25 05:30:42;;;;;;;3.55;1.67;;;14.80;99.90;;;;;;10090231;28;20614;-71
2023/09/25 05:35:33;;;;;;;2.50;1.52;;;14.80;99.90;;;;;;10072595;28;20121;-72
2023/09/25 05:40:24;;;;;;;2.65;1.70;;;14.70;99.90;;;;;;10100729;28;20032;-72
2023/09/25 05:45:16;;;;;;;1.92;1.50;;;14.60;99.90;;;;;;10095863;28;20572;-72
2023/09/25 05:50:08;;;;;;;2.67;1.42;;;14.60;99.90;;;;;;10098274;28;20434;-71
2023/09/25 05:54:58;;;;;;;2.75;1.40;;;14.50;99.90;;;;;;10091904;28;20052;-72
2023/09/25 05:59:49;;;;;;;2.70;1.35;;;14.50;99.90;;;;;;10088604;28;20029;-71
2023/09/25 06:04:40;;;;;;;2.88;1.70;;;14.30;99.90;;;;;;10097710;28;20036;-71
2023/09/25 06:09:31;;;;;;;2.70;1.92;;;14.40;99.90;;;;;;10093096;28;20285;-71
2023/09/25 06:14:22;;;;;;;2.75;1.60;;;14.50;99.90;;;;;;10094556;28;20085;-71
2023/09/25 06:19:12;;;;;;;3.45;1.80;;;14.40;99.90;;;;;;10088623;28;20078;-72
2023/09/25 06:24:06;;;;;;;3.17;1.70;;;14.50;99.90;;;;;;10083741;28;20033;-72
2023/09/25 06:28:56;;;;;;;3.28;1.55;;;14.40;99.90;;;;;;10098136;28;20032;-73
2023/09/25 06:33:47;;;;;;;3.30;1.50;;;14.30;99.90;;;;;;10085606;28;20384;-72
2023/09/25 06:38:38;;;;;;;3.50;1.73;;;14.30;99.90;;;;;;10083450;28;20024;-72
2023/09/25 06:43:29;;;;;;;2.75;1.73;;;14.30;99.90;;;;;;10095670;28;20322;-73
2023/09/25 06:48:20;;;;;;;3.13;1.67;;;14.40;99.90;;;;;;10093370;28;20119;-71
2023/09/25 06:53:12;;;;;;;3.35;1.90;;;14.40;99.90;;;;;;10094251;28;20418;-72
2023/09/25 06:58:03;;;;;;;3.75;1.65;;;14.40;99.90;;;;;;10080715;28;20032;-70
2023/09/25 07:02:54;;;;;;;3.78;1.40;;;14.50;99.90;;;;;;10092241;28;20475;-71
2023/09/25 07:07:44;;;;;;;2.50;1.67;;;14.50;99.90;;;;;;10094179;28;20029;-73
2023/09/25 07:12:36;;;;;;;2.90;1.75;;;14.60;99.90;;;;;;10087180;28;20029;-72
2023/09/25 07:17:27;;;;;;;2.28;1.23;;;14.60;99.90;;;;;;10081585;28;20078;-72
2023/09/25 07:22:20;;;;;;;4.88;2.20;;;14.50;99.90;;;;;;10074825;28;20048;-72
2023/09/25 07:27:11;;;;;;;2.63;1.60;;;14.60;99.90;;;;;;10066883;28;20028;-72
2023/09/25 07:32:01;;;;;;;2.58;2.00;;;14.70;99.90;;;;;;10076268;28;20041;-72
2023/09/25 07:36:52;;;;;;;2.60;1.52;;;14.70;99.90;;;;;;10088136;28;20518;-72
2023/09/25 07:41:42;;;;;;;2.83;1.45;;;14.80;99.90;;;;;;10098080;28;20033;-72
2023/09/25 07:46:33;;;;;;;3.67;2.17;;;14.90;99.90;;;;;;10091800;28;20071;-70
2023/09/25 07:51:24;;;;;;;5.25;1.92;;;14.90;99.90;;;;;;10079927;28;20041;-71
2023/09/25 07:56:15;;;;;;;3.72;2.20;;;15.00;99.90;;;;;;10083158;28;20033;-73
2023/09/25 08:01:08;;;;;;;2.63;1.90;;;15.00;99.90;;;;;;10081269;28;20102;-71
2023/09/25 08:06:04;;;;;;;4.28;1.77;;;15.10;99.90;;;;;;10087315;28;20033;-71
2023/09/25 08:10:55;;;;;;;2.05;1.35;;;15.20;99.90;;;;;;10091255;28;20059;-71
2023/09/25 08:15:45;;;;;;;3.67;2.03;;;15.20;99.90;;;;;;10083615;28;20076;-70
2023/09/25 08:20:37;;;;;;;2.58;2.13;;;15.20;99.90;;;;;;10088943;28;20033;-70
2023/09/25 08:25:27;;;;;;;3.33;2.40;;;15.30;99.90;;;;;;10086537;28;20351;-70
2023/09/25 08:30:18;;;;;;;3.00;2.00;;;15.50;99.90;;;;;;10079000;28;20124;-72
2023/09/25 08:35:09;;;;;;;3.55;2.20;;;15.50;99.90;;;;;;10072375;28;20045;-73
2023/09/25 08:40:06;;;;;;;4.00;1.92;;;15.50;99.90;;;;;;10089988;28;20021;-73
2023/09/25 08:45:03;;;;;;;4.80;1.67;;;15.60;99.90;;;;;;10082144;28;20527;-72
2023/09/25 08:49:53;;;;;;;2.42;1.70;;;15.70;99.90;;;;;;10092732;28;20021;-71
2023/09/25 08:54:46;;;;;;;2.03;1.45;;;15.60;99.90;;;;;;10090335;28;20045;-72
2023/09/25 08:59:38;;;;;;;3.63;1.60;;;15.60;99.90;;;;;;10096115;28;20461;-70
2023/09/25 09:04:28;;;;;;;4.57;1.92;;;15.70;99.90;;;;;;10098168;28;20099;-71
2023/09/25 09:09:21;;;;;;;3.10;1.80;;;15.70;99.90;;;;;;10088625;28;20021;-71
2023/09/25 09:14:13;;;;;;;5.70;1.77;;;15.80;99.90;;;;;;10086260;28;20029;-72
2023/09/25 09:19:07;;;;;;;6.55;2.42;;;15.90;99.90;;;;;;10094346;28;20028;-71
2023/09/25 09:23:58;;;;;;;2.90;1.85;;;15.90;99.90;;;;;;10097372;28;20095;-71
2023/09/25 09:28:49;;;;;;;3.95;1.70;;;15.90;99.90;;;;;;10087351;28;20064;-71
2023/09/25 09:33:43;;;;;;;4.03;2.35;;;15.90;99.90;;;;;;10089727;28;20039;-72
2023/09/25 09:38:36;;;;;;;4.60;1.90;;;16.00;99.90;;;;;;10088171;28;20483;-71
2023/09/25 09:43:28;;;;;;;4.60;2.13;;;16.00;99.90;;;;;;10082728;28;20454;-73
2023/09/25 09:48:21;;;;;;;5.60;2.72;;;16.10;99.90;;;;;;10085674;28;20512;-72
2023/09/25 09:53:13;;;;;;;3.95;3.10;;;16.10;99.90;;;;;;10083078;28;20185;-71
2023/09/25 09:58:05;;;;;;;4.70;2.35;;;16.20;99.90;;;;;;10094636;28;20043;-70
2023/09/25 10:02:56;;;;;;;3.88;2.55;;;16.20;99.90;;;;;;10098001;28;20040;-72
2023/09/25 10:08:06;;;;;;;4.47;2.50;;;16.30;99.90;;;;;;10077864;28;20044;-71
2023/09/25 10:12:57;;;;;;;3.35;2.10;;;16.30;99.90;;;;;;10093782;28;20067;-70
2023/09/25 10:17:48;;;;;;;4.00;2.67;;;16.40;99.90;;;;;;10088489;28;20394;-71
2023/09/25 10:22:43;;;;;;;3.90;2.28;;;16.40;99.90;;;;;;10086685;28;20033;-71
2023/09/25 10:27:35;;;;;;;4.07;2.28;;;16.40;99.90;;;;;;10081060;28;20056;-71
2023/09/25 10:32:30;;;;;;;4.13;2.17;;;16.50;99.90;;;;;;10085579;28;20168;-72
2023/09/25 10:37:21;;;;;;;3.00;1.83;;;16.50;99.90;;;;;;10084575;28;20037;-72
2023/09/25 10:42:13;;;;;;;3.95;2.72;;;16.50;99.90;;;;;;10091038;28;20100;-71
2023/09/25 10:47:07;;;;;;;2.90;1.60;;;16.60;99.90;;;;;;10079972;28;20430;-69
2023/09/25 10:51:59;;;;;;;3.53;1.67;;;16.60;99.90;;;;;;10078170;28;20481;-70
2023/09/25 10:56:49;;;;;;;2.92;1.90;;;16.60;99.90;;;;;;10072006;28;20511;-71
2023/09/25 11:01:40;;;;;;;2.70;1.67;;;16.70;99.90;;;;;;10092380;28;20033;-72
2023/09/25 11:06:31;;;;;;;4.68;2.42;;;16.70;99.90;;;;;;10086800;28;20033;-72
2023/09/25 11:11:23;;;;;;;7.93;2.58;;;16.90;99.90;;;;;;10084357;28;20032;-72
2023/09/25 11:16:13;;;;;;;5.30;2.10;;;16.80;99.90;;;;;;10086587;28;20048;-73
2023/09/25 11:21:05;;;;;;;4.03;2.35;;;16.90;99.90;;;;;;10089784;28;20465;-72
2023/09/25 11:25:55;;;;;;;3.10;2.00;;;17.00;99.90;;;;;;10091186;28;20453;-71
2023/09/25 11:30:48;;;;;;;4.47;1.75;;;17.00;99.90;;;;;;10080427;28;20112;-72
2023/09/25 11:35:41;;;;;;;2.78;1.73;;;17.10;99.90;;;;;;10077127;28;20519;-74
2023/09/25 11:40:32;;;;;;;2.25;1.50;;;17.10;99.90;;;;;;10080897;28;20031;-73
2023/09/25 11:45:24;;;;;;;2.67;1.98;;;17.20;99.90;;;;;;10084651;28;20025;-74
2023/09/25 11:50:16;;;;;;;4.88;1.83;;;17.20;99.90;;;;;;10086683;28;20033;-74
2023/09/25 11:55:16;;;;;;;3.10;1.60;;;17.30;99.90;;;;;;10076078;28;20103;-73
2023/09/25 12:00:09;;;;;;;2.30;1.40;;;17.40;99.90;;;;;;10087171;28;20021;-74
2023/09/25 12:05:00;;;;;;;2.53;1.45;;;17.50;99.90;;;;;;10083651;28;20274;-74
2023/09/25 12:09:51;;;;;;;2.88;1.40;;;17.60;99.90;;;;;;10084319;28;20355;-74
2023/09/25 12:14:42;;;;;;;3.88;1.35;;;17.70;99.90;;;;;;10087156;28;20476;-76
2023/09/25 12:19:33;;;;;;;2.85;1.55;;;17.80;99.90;;;;;;10082690;28;20025;-75
2023/09/25 12:24:23;;;;;;;1.88;0.98;;;17.90;99.90;;;;;;10082645;28;20059;-73
2023/09/25 12:29:14;;;;;;;1.60;1.02;;;18.00;99.90;;;;;;10082278;28;20506;-72
2023/09/25 12:34:05;;;;;;;3.63;1.45;;;18.20;99.90;;;;;;10095368;28;20029;-72
2023/09/25 12:38:56;;;;;;;2.58;0.98;;;18.20;99.90;;;;;;10095057;28;20163;-73
2023/09/25 12:43:47;;;;;;;3.85;1.10;;;18.30;99.90;;;;;;10090343;28;20128;-72
2023/09/25 12:48:37;;;;;;;1.48;1.00;;;18.50;99.90;;;;;;10095563;28;20082;-73
2023/09/25 12:53:28;;;;;;;2.45;1.30;;;18.60;99.90;;;;;;10096959;28;20234;-73
2023/09/25 12:58:19;;;;;;;1.23;0.90;;;18.70;99.90;;;;;;10091388;28;20118;-72
2023/09/25 13:03:10;;;;;;;1.45;1.20;;;18.80;99.90;;;;;;10096335;28;20433;-73
2023/09/25 13:08:00;;;;;;;2.17;1.08;;;19.00;99.90;;;;;;10095889;28;20550;-73
2023/09/25 13:12:52;;;;;;;2.53;1.58;;;19.10;99.90;;;;;;10093159;28;20051;-72
2023/09/25 13:17:43;;;;;;;1.23;1.00;;;19.20;99.90;;;;;;10081847;28;20025;-72
2023/09/25 13:22:34;;;;;;;1.40;0.80;;;19.30;99.90;;;;;;10088467;28;20029;-73
2023/09/25 13:27:25;;;;;;;1.02;0.77;;;19.50;99.90;;;;;;10081341;28;20030;-73
2023/09/25 13:32:16;;;;;;;2.15;1.10;;;19.60;99.90;;;;;;10086097;28;20387;-72
2023/09/25 13:37:07;;;;;;;2.42;1.55;;;19.70;99.90;;;;;;10086992;28;20048;-72
2023/09/25 13:41:57;;;;;;;3.42;1.98;;;19.90;99.90;;;;;;10090290;28;20029;-72
2023/09/25 13:46:54;;;;;;;1.98;1.10;;;20.10;99.90;;;;;;10093109;28;20638;-72
2023/09/25 13:51:45;;;;;;;2.25;1.60;;;20.20;99.90;;;;;;10089872;28;20048;-73
2023/09/25 13:56:37;;;;;;;3.63;1.30;;;20.50;99.90;;;;;;10084683;28;20128;-72
2023/09/25 14:01:28;;;;;;;2.17;0.95;;;20.50;99.90;;;;;;10084847;28;20025;-71
2023/09/25 14:06:18;;;;;;;1.58;1.25;;;20.70;99.90;;;;;;10093680;28;20033;-72
2023/09/25 14:11:09;;;;;;;1.55;1.00;;;21.00;99.90;;;;;;10086495;28;20522;-73
2023/09/25 14:16:00;;;;;;;5.70;1.10;;;21.10;99.90;;;;;;10092528;28;20033;-72
2023/09/25 14:20:50;;;;;;;1.65;1.02;;;21.20;99.90;;;;;;10099244;28;20021;-73
2023/09/25 14:25:41;;;;;;;4.10;1.17;;;21.40;99.90;;;;;;10095194;28;20029;-72
2023/09/25 14:30:32;;;;;;;1.83;1.13;;;21.60;99.90;;;;;;10086726;28;20065;-73
2023/09/25 14:35:23;;;;;;;5.20;1.15;;;21.80;99.90;;;;;;10097023;28;20051;-73
2023/09/25 14:40:14;;;;;;;1.60;1.10;;;22.00;99.90;;;;;;10097038;28;20079;-72
2023/09/25 14:45:05;;;;;;;2.00;0.98;;;22.20;99.90;;;;;;10089733;28;20048;-74
2023/09/25 14:49:56;;;;;;;5.38;2.30;;;22.40;99.90;;;;;;10095330;28;20013;-73
2023/09/25 14:54:50;;;;;;;3.00;1.05;;;22.60;99.90;;;;;;10083917;28;20084;-74
2023/09/25 14:59:41;;;;;;;1.77;0.98;;;22.80;99.90;;;;;;10082864;28;20080;-74
2023/09/25 15:04:32;;;;;;;2.00;1.48;;;23.00;99.80;;;;;;10091406;28;20041;-74
2023/09/25 15:09:23;;;;;;;1.88;0.98;;;23.20;99.50;;;;;;10079008;28;20028;-73
2023/09/25 15:14:14;;;;;;;0.85;0.82;;;23.30;99.30;;;;;;10080984;28;20044;-72
2023/09/25 15:19:05;;;;;;;1.88;0.80;;;23.50;99.20;;;;;;10088211;28;20032;-74
2023/09/25 15:23:56;;;;;;;2.05;1.05;;;23.60;99.10;;;;;;10085857;28;20029;-74
2023/09/25 15:28:47;;;;;;;1.55;0.95;;;23.70;98.90;;;;;;10084557;28;20029;-75
2023/09/25 15:33:38;;;;;;;3.90;1.88;;;23.80;98.90;;;;;;10087650;28;20129;-74
2023/09/25 15:38:28;;;;;;;2.17;1.02;;;24.00;98.50;;;;;;10089441;28;20116;-73
2023/09/25 15:43:19;;;;;;;2.75;1.40;;;24.10;98.30;;;;;;10094018;28;20021;-71
2023/09/25 15:48:10;;;;;;;2.47;1.65;;;24.20;98.20;;;;;;10088514;28;20024;-75
2023/09/25 15:53:01;;;;;;;2.60;1.80;;;24.40;98.10;;;;;;10084312;28;20061;-74
2023/09/25 15:57:51;;;;;;;2.33;1.50;;;24.50;97.90;;;;;;10090190;28;20513;-74
2023/09/25 16:02:42;;;;;;;4.38;1.75;;;24.60;97.80;;;;;;10092731;28;20033;-75
2023/09/25 16:07:33;;;;;;;2.63;1.30;;;24.50;97.80;;;;;;10087665;28;20021;-73
2023/09/25 16:12:26;;;;;;;2.95;1.20;;;24.30;97.80;;;;;;10090992;28;20514;-74
2023/09/25 16:17:17;;;;;;;3.20;1.45;;;24.10;97.80;;;;;;10089468;28;20037;-74
2023/09/25 16:22:07;;;;;;;2.08;1.08;;;23.80;97.90;;;;;;10092570;28;20104;-77
2023/09/25 16:26:58;;;;;;;2.83;1.27;;;23.50;98.00;;;;;;10090696;28;20249;-72
2023/09/25 16:31:49;;;;;;;6.45;2.95;;;23.40;98.00;;;;;;10088237;28;20060;-70
2023/09/25 16:36:40;;;;;;;5.10;3.13;;;23.30;97.90;;;;;;10091405;28;20083;-72
2023/09/25 16:41:30;;;;;;;4.32;2.35;;;23.30;97.90;;;;;;10089460;28;20103;-73
2023/09/25 16:46:21;;;;;;;5.15;2.45;;;23.20;97.90;;;;;;10092030;28;20021;-68
2023/09/25 16:51:18;;;;;;;2.70;1.70;;;23.20;98.00;;;;;;10085520;28;20170;-73
2023/09/25 16:56:09;;;;;;;4.25;1.48;;;23.10;98.00;;;;;;10069243;28;20124;-72
2023/09/25 17:01:00;;;;;;;4.40;2.22;;;23.10;98.00;;;;;;10092838;28;20021;-73
2023/09/25 17:05:51;;;;;;;5.60;2.75;;;23.10;98.00;;;;;;10089802;28;20033;-72
2023/09/25 17:10:41;;;;;;;6.53;3.45;;;23.10;98.30;;;;;;10089063;28;20029;-73
2023/09/25 17:15:37;;;;;;;3.45;2.08;;;23.10;98.00;;;;;;10094121;28;20055;-73
2023/09/25 17:20:28;;;;;;;4.75;2.53;;;23.10;98.10;;;;;;10084064;28;20116;-73
2023/09/25 17:25:19;;;;;;;5.65;3.10;;;23.00;98.10;;;;;;10094245;28;20029;-72
2023/09/25 17:30:11;;;;;;;10.48;4.97;;;22.90;98.20;;;;;;10092688;28;20032;-73
2023/09/25 17:35:03;;;;;;;12.07;7.22;;;23.00;98.20;;;;;;10092104;28;20036;-75
2023/09/25 17:39:53;;;;;;;7.55;3.60;;;23.00;98.30;;;;;;10094464;28;20546;-71
2023/09/25 17:44:44;;;;;;;6.00;3.17;;;22.90;98.40;;;;;;10090419;28;20391;-72
2023/09/25 17:49:35;;;;;;;7.30;3.45;;;22.80;98.50;;;;;;10086143;28;20037;-72
2023/09/25 17:54:26;;;;;;;7.03;3.60;;;22.70;98.60;;;;;;10086073;28;20059;-72
2023/09/25 17:59:16;;;;;;;7.57;3.50;;;22.70;98.70;;;;;;10064877;28;20593;-72
2023/09/25 18:04:07;;;;;;;5.38;3.33;;;22.60;98.80;;;;;;10081736;28;20159;-72
2023/09/25 18:08:58;;;;;;;7.93;3.38;;;22.50;99.00;;;;;;10090569;28;20553;-74
2023/09/25 18:13:48;;;;;;;8.95;4.63;;;22.60;99.00;;;;;;10097629;28;20049;-73
2023/09/25 18:18:39;;;;;;;8.60;2.85;;;22.60;99.10;;;;;;10083333;28;20029;-71
2023/09/25 18:23:30;;;;;;;5.35;2.97;;;22.50;99.20;;;;;;10083466;28;20021;-71
2023/09/25 18:28:21;;;;;;;6.30;3.03;;;22.50;99.30;;;;;;10085836;28;20033;-72
2023/09/25 18:33:12;;;;;;;5.13;2.35;;;22.50;99.40;;;;;;10079609;28;20029;-72
2023/09/25 18:38:02;;;;;;;3.40;2.42;;;22.40;99.40;;;;;;10080386;28;20028;-73
2023/09/25 18:42:55;;;;;;;7.13;2.90;;;22.50;99.50;;;;;;10088558;28;20022;-72
2023/09/25 18:47:45;;;;;;;4.70;2.58;;;22.40;99.50;;;;;;10086867;28;20033;-72
2023/09/25 18:52:36;;;;;;;8.98;2.72;;;22.30;99.50;;;;;;10077881;28;20049;-72
2023/09/25 18:57:27;;;;;;;3.35;2.10;;;22.20;99.60;;;;;;10083413;28;20503;-73
2023/09/25 19:02:18;;;;;;;4.88;2.85;;;22.20;99.70;;;;;;10095137;28;20040;-72
2023/09/25 19:07:08;;;;;;;8.40;3.10;;;22.10;99.70;;;;;;10088964;28;20029;-72
2023/09/25 19:11:59;;;;;;;6.38;3.08;;;22.10;99.70;;;;;;10082207;28;20033;-73
2023/09/25 19:16:50;;;;;;;8.00;3.03;;;22.00;99.80;;;;;;10080016;28;20037;-72
2023/09/25 19:21:41;;;;;;;8.55;2.80;;;21.90;99.90;;;;;;10096126;28;20809;-72
2023/09/25 19:26:32;;;;;;;6.93;2.90;;;21.90;99.90;;;;;;10078499;28;20029;-72
2023/09/25 19:31:23;;;;;;;4.50;2.85;;;21.70;99.90;;;;;;10084578;28;20021;-72
2023/09/25 19:36:14;;;;;;;5.25;2.63;;;21.60;99.90;;;;;;10080354;28;20043;-74
2023/09/25 19:41:04;;;;;;;6.85;3.30;;;21.40;99.90;;;;;;10083179;28;20017;-73
2023/09/25 19:45:55;;;;;;;8.60;3.97;;;21.50;99.90;;;;;;10085049;28;20025;-72
2023/09/25 19:50:46;;;;;;;7.78;3.25;;;21.60;99.90;;;;;;10087762;28;20033;-72
2023/09/25 19:55:36;;;;;;;9.23;3.40;;;21.70;99.90;;;;;;10087529;28;20053;-71
2023/09/25 20:00:27;;;;;;;5.65;3.17;;;21.60;99.90;;;;;;10079574;28;20021;-72
2023/09/25 20:05:18;;;;;;;7.60;3.33;;;21.50;99.90;;;;;;10091608;28;20036;-74
2023/09/25 20:10:09;;;;;;;10.30;3.47;;;21.50;99.90;;;;;;10091076;28;20120;-73
2023/09/25 20:15:00;;;;;;;4.35;2.50;;;21.30;99.90;;;;;;10092838;28;20124;-72
2023/09/25 20:19:53;;;;;;;4.00;2.72;;;21.20;99.90;;;;;;10084566;28;20017;-71
2023/09/25 20:24:44;;;;;;;6.28;2.70;;;21.20;99.90;;;;;;10079498;28;20063;-72
2023/09/25 20:29:34;;;;;;;6.78;2.33;;;21.10;99.90;;;;;;10075633;28;20037;-73
2023/09/25 20:34:25;;;;;;;4.35;2.30;;;21.00;99.90;;;;;;10084904;28;20033;-73
2023/09/25 20:39:16;;;;;;;5.53;2.40;;;20.80;99.90;;;;;;10082288;28;20526;-71
2023/09/25 20:44:07;;;;;;;3.35;2.53;;;20.80;99.90;;;;;;10087328;28;20033;-72
2023/09/25 20:48:58;;;;;;;4.95;2.47;;;20.70;99.90;;;;;;10096981;28;20273;-72
2023/09/25 20:53:48;;;;;;;11.85;2.42;;;20.80;99.90;;;;;;10088812;28;20144;-73
2023/09/25 20:58:39;;;;;;;5.80;2.45;;;20.70;99.90;;;;;;10082109;28;20033;-73
2023/09/25 21:03:30;;;;;;;4.85;2.67;;;20.60;99.90;;;;;;10091063;28;20128;-72
2023/09/25 21:08:20;;;;;;;6.35;2.63;;;20.50;99.90;;;;;;10093866;28;20026;-72
2023/09/25 21:13:11;;;;;;;6.43;2.60;;;20.50;99.90;;;;;;10091606;28;20025;-73
2023/09/25 21:18:02;;;;;;;3.58;2.10;;;20.30;99.90;;;;;;10088796;28;20494;-73
2023/09/25 21:22:53;;;;;;;3.42;2.10;;;20.30;99.90;;;;;;10093737;28;20029;-71
2023/09/25 21:27:43;;;;;;;5.13;2.88;;;20.30;99.90;;;;;;10089176;28;20033;-72
2023/09/25 21:32:35;;;;;;;4.85;3.00;;;20.40;99.90;;;;;;10081605;28;20041;-72
2023/09/25 21:37:26;;;;;;;3.00;1.98;;;20.30;99.90;;;;;;10088068;28;20526;-72
2023/09/25 21:42:17;;;;;;;4.72;1.92;;;20.30;99.90;;;;;;10096062;28;20417;-72
2023/09/25 21:47:07;;;;;;;3.58;2.17;;;20.10;99.90;;;;;;10091503;28;20028;-73
2023/09/25 21:51:58;;;;;;;3.00;2.38;;;20.20;99.90;;;;;;10092534;28;20045;-72
2023/09/25 21:56:48;;;;;;;4.53;2.33;;;20.10;99.90;;;;;;10087922;28;20136;-72
2023/09/25 22:01:39;;;;;;;3.00;2.13;;;20.00;99.90;;;;;;10094160;28;20033;-72
2023/09/25 22:06:35;;;;;;;4.13;2.35;;;19.90;99.90;;;;;;10088111;28;20043;-72
2023/09/25 22:11:26;;;;;;;4.05;2.10;;;19.80;99.90;;;;;;10095545;28;20039;-72
2023/09/25 22:16:17;;;;;;;5.32;2.83;;;19.70;99.90;;;;;;10090525;28;20043;-72
2023/09/25 22:21:17;;;;;;;3.90;2.45;;;19.70;99.90;;;;;;10079809;28;20396;-71
2023/09/25 22:26:11;;;;;;;3.28;2.25;;;19.60;99.90;;;;;;10072543;28;20031;-71
2023/09/25 22:31:03;;;;;;;3.95;2.65;;;19.60;99.90;;;;;;10083243;28;20033;-72
2023/09/25 22:35:54;;;;;;;4.53;3.20;;;19.60;99.90;;;;;;10086122;28;20063;-72
2023/09/25 22:40:45;;;;;;;4.15;2.40;;;19.50;99.90;;;;;;10100350;28;20527;-71
2023/09/25 22:45:36;;;;;;;3.47;2.67;;;19.40;99.90;;;;;;10091830;28;20095;-72
2023/09/25 22:50:28;;;;;;;6.80;3.92;;;19.40;99.90;;;;;;10087010;28;20048;-72
2023/09/25 22:55:19;;;;;;;5.47;3.63;;;19.50;99.90;;;;;;10083663;28;20060;-73
2023/09/25 23:00:18;;;;;;;6.05;4.22;;;19.40;99.90;;;;;;10081585;28;20431;-72
2023/09/25 23:05:09;;;;;;;6.90;4.03;;;19.30;99.90;;;;;;10093089;28;20463;-72
2023/09/25 23:10:00;;;;;;;3.92;2.63;;;19.30;99.90;;;;;;10094842;28;20424;-73
2023/09/25 23:14:51;;;;;;;4.55;2.63;;;19.20;99.90;;;;;;10091688;28;20053;-73
2023/09/25 23:19:41;;;;;;;3.28;2.33;;;19.10;99.90;;;;;;10089918;28;20068;-72
2023/09/25 23:24:32;;;;;;;4.38;2.40;;;19.10;99.90;;;;;;10093613;28;20037;-72
2023/09/25 23:29:23;;;;;;;5.90;2.80;;;19.00;99.90;;;;;;10092785;28;20107;-71
2023/09/25 23:34:14;;;;;;;4.05;2.92;;;18.90;99.90;;;;;;10093287;28;20423;-72
2023/09/25 23:39:05;;;;;;;5.75;2.53;;;18.90;99.90;;;;;;10096210;28;20058;-72
2023/09/25 23:43:56;;;;;;;3.38;2.30;;;18.90;99.90;;;;;;10094151;28;20503;-72
2023/09/25 23:48:53;;;;;;;3.55;2.63;;;18.80;99.90;;;;;;10094155;28;20051;-71
2023/09/25 23:53:44;;;;;;;3.45;2.40;;;18.80;99.90;;;;;;10085433;28;20280;-72
2023/09/25 23:58:35;;;;;;;3.45;2.28;;;18.80;99.90;;;;;;10074500;28;20294;-72
